This is the latest recevied weather packets stored in our database for station/object SR6WVX. If no packets are shown the sender has not sent any weather packets the latest 1 day(s).
| Time | Temp. | Humidity | Pressure | Rain* | Wind** | Luminosity | Snow |
|---|---|---|---|---|---|---|---|
| 1778047096 | 20° C | 66% | 1000 hPa | 0 mm | - | - | - |
| 1778046495 | 18.33° C | 76% | 999.7 hPa | 0 mm | - | - | - |
| 1778046195 | 16.67° C | 83% | 999.6 hPa | 0 mm | - | - | - |
| 1778045294 | 13.89° C | 86% | 999.7 hPa | 0 mm | - | - | - |
| 1778044994 | 13.89° C | 87% | 999.4 hPa | 0 mm | - | - | - |
| 1778044393 | 12.78° C | 89% | 999.4 hPa | 0 mm | - | - | - |
| 1778044093 | 12.22° C | 89% | 999.4 hPa | 0 mm | - | - | - |
| 1778043793 | 11.67° C | 90% | 999.4 hPa | 0 mm | - | - | - |
| 1778043192 | 11.11° C | 89% | 999.3 hPa | 0 mm | - | - | - |
| 1778042892 | 11.11° C | 89% | 999.2 hPa | 0 mm | - | - | - |
| 1778042592 | 10.56° C | 89% | 999.2 hPa | 0 mm | - | - | - |
| 1778041991 | 11.11° C | 89% | 998.9 hPa | 0 mm | - | - | - |
| 1778041691 | 11.11° C | 89% | 999.1 hPa | 0 mm | - | - | - |
| 1778041391 | 11.11° C | 89% | 999.1 hPa | 0 mm | - | - | - |
| 1778041090 | 11.11° C | 90% | 999.1 hPa | 0 mm | - | - | - |
| 1778040790 | 11.11° C | 90% | 999.1 hPa | 0 mm | - | - | - |
| 1778040490 | 11.11° C | 90% | 999.1 hPa | 0 mm | - | - | - |
| 1778039589 | 10° C | 90% | 999.3 hPa | 0 mm | - | - | - |
| 1778039289 | 10° C | 90% | 999.3 hPa | 0 mm | - | - | - |
| 1778038688 | 9.44° C | 90% | 999.1 hPa | 0 mm | - | - | - |
| 1778038388 | 9.44° C | 90% | 999 hPa | 0 mm | - | - | - |
| 1778038088 | 8.89° C | 89% | 998.9 hPa | 0 mm | - | - | - |
| 1778037787 | 8.89° C | 89% | 999 hPa | 0 mm | - | - | - |
| 1778037487 | 8.89° C | 89% | 998.7 hPa | 0 mm | - | - | - |
| 1778037187 | 8.89° C | 88% | 998.4 hPa | 0 mm | - | - | - |
* Rain latest hour (hover to see other rain measurements)
** Current wind speed in m/s (hover to see current wind gust speed)